ウラジオストク の空港の天気 - METARとTAF

ウラジオストク空港 ( UHWW / VVO ) - ロシア ウラジオストク
飛行場実況気象(Metar)
観測時間05/18 01:30 VLAT (05/17 15:30 UTC)
風向・風速北北東 3m/s
視程10km以上
天気現象
なし
気温9℃
湿度81%
気圧1006hPa
METARUHWW 171530Z 03003MPS 9999 NSC 09/06 Q1006 R25L/0///70 NOSIG RMK QFE753
過去の天気等 Google飛行場航空写真 Wunderground天気予報

過去48時間のMETAR

飛行場予報(TAF)
発表時間: 5/17 23:55 VLAT (5/17 13:55 UTC)
予報対象時間: 18日1時 VLAT ~ 19日1時 VLAT
風向・風速東北東 3m/s
視程10km以上
なし
18日1時 VLAT ~ 18日10時 VLAT に一時的に
風向・風速不定 1m/s
視程6000m
全天の4割程度の雲 雲底高度 60m
全天の8割程度の雲 雲底高度 520m
18日10時 VLAT ~ 18日13時 VLAT に徐々に
風向・風速南 3m/s
18日13時 VLAT ~ 18日20時 VLAT に一時的に
風向・風速南南西 11m/s
全天の4割程度の雲 雲底高度 1220m
TAF UHWW 171355Z 1715/1815 06003MPS 9999 NSC
TEMPO 1715/1724 VRB01MPS 6000 SCT002 BKN017
BECMG 1800/1803 18003MPS
TEMPO 1803/1810 21011MPS SCT040